Time;durP1;ratioP1;P1;durP2;ratioP2;P2;SDS_P1;SDS_P2;PMS_P1;PMS_P2;Temp;Humidity;BMP_temperature;BMP_pressure;BME280_temperature;BME280_humidity;BME280_pressure;Samples;Min_cycle;Max_cycle;Signal;HPM_P1;HPM_P2
2021/12/03 00:01:29;;;;;;;5.40;3.15;;;-1.50;99.90;;;-1.72;76.00;100131.03;5001007;28;20181;-70
2021/12/03 00:04:00;;;;;;;8.35;3.15;;;-1.50;99.90;;;-1.78;76.22;100128.94;5000998;28;20253;-71
2021/12/03 00:06:34;;;;;;;4.90;3.33;;;-1.50;99.90;;;-1.76;76.68;100140.25;5000924;28;20225;-71
2021/12/03 00:09:04;;;;;;;11.57;3.75;;;-1.50;99.90;;;-1.85;76.32;100147.25;5000160;28;20194;-72
2021/12/03 00:11:32;;;;;;;6.80;3.17;;;-1.60;99.90;;;-1.79;76.44;100145.81;4999831;28;20198;-70
2021/12/03 00:14:01;;;;;;;10.20;3.97;;;-1.60;99.90;;;-1.84;76.21;100148.09;5000021;28;20575;-70
2021/12/03 00:16:30;;;;;;;3.92;2.50;;;-1.60;99.90;;;-1.82;76.02;100151.41;5004374;28;20209;-70
2021/12/03 00:19:00;;;;;;;10.48;3.40;;;-1.60;99.90;;;-1.85;76.82;100154.34;5009242;28;20217;-70
2021/12/03 00:21:28;;;;;;;10.45;3.78;;;-1.60;99.90;;;-1.83;76.53;100160.34;5007671;28;20182;-69
2021/12/03 00:23:57;;;;;;;5.22;3.20;;;-1.60;99.90;;;-1.77;76.25;100167.75;5007372;28;20219;-70
2021/12/03 00:26:25;;;;;;;13.48;4.35;;;-1.60;99.90;;;-1.76;76.54;100157.00;5009245;28;20175;-71
2021/12/03 00:28:53;;;;;;;6.03;3.30;;;-1.60;99.90;;;-1.81;76.24;100169.00;5008499;28;20195;-70
2021/12/03 00:31:22;;;;;;;10.10;4.47;;;-1.60;99.90;;;-1.84;76.21;100166.66;5006728;28;20194;-70
2021/12/03 00:33:50;;;;;;;9.80;3.55;;;-1.60;99.90;;;-1.89;77.16;100159.09;5006116;28;20289;-71
2021/12/03 00:36:20;;;;;;;5.15;2.58;;;-1.60;99.90;;;-1.96;76.72;100154.50;5006765;28;20195;-70
2021/12/03 00:38:53;;;;;;;5.22;3.45;;;-1.60;99.90;;;-1.83;76.36;100149.72;5004220;28;20636;-70
2021/12/03 00:41:22;;;;;;;10.43;4.40;;;-1.60;99.90;;;-1.80;76.49;100155.63;5006444;28;20180;-70
2021/12/03 00:43:53;;;;;;;9.93;3.17;;;-1.60;99.90;;;-1.79;76.23;100151.97;5004748;28;20218;-70
2021/12/03 00:46:23;;;;;;;5.80;2.60;;;-1.60;99.90;;;-1.86;76.17;100144.72;5006629;28;20174;-70
2021/12/03 00:48:55;;;;;;;10.40;3.40;;;-1.60;99.90;;;-1.80;76.26;100150.31;5007233;28;20202;-70
2021/12/03 00:51:27;;;;;;;8.57;4.03;;;-1.60;99.90;;;-1.83;76.26;100163.84;5008336;28;20171;-71
2021/12/03 00:53:56;;;;;;;9.73;2.67;;;-1.60;99.90;;;-1.83;76.67;100165.66;5008287;28;20242;-70
2021/12/03 00:56:25;;;;;;;8.27;2.70;;;-1.60;99.90;;;-1.81;76.31;100169.00;5008128;28;20203;-71
2021/12/03 00:58:53;;;;;;;7.07;3.70;;;-1.60;99.90;;;-1.81;76.33;100166.34;5007025;28;20205;-72
2021/12/03 01:01:21;;;;;;;10.48;4.00;;;-1.60;99.90;;;-1.77;76.48;100165.09;5007617;28;20183;-70
2021/12/03 01:03:50;;;;;;;12.20;3.35;;;-1.60;99.90;;;-1.73;75.75;100171.78;5006753;28;20286;-70
2021/12/03 01:06:19;;;;;;;8.95;3.40;;;-1.60;99.90;;;-1.70;75.75;100166.22;5005509;28;20183;-70
2021/12/03 01:08:48;;;;;;;8.10;3.20;;;-1.50;99.90;;;-1.72;75.50;100168.16;5006639;28;20222;-70
2021/12/03 01:11:18;;;;;;;5.30;2.95;;;-1.50;99.90;;;-1.72;75.79;100164.66;5005869;28;20643;-70
2021/12/03 01:13:47;;;;;;;4.65;2.83;;;-1.50;99.90;;;-1.81;76.63;100159.25;5005741;28;20223;-72
2021/12/03 01:16:18;;;;;;;9.05;3.25;;;-1.60;99.90;;;-1.76;76.84;100158.81;5006224;28;20218;-70
2021/12/03 01:18:47;;;;;;;6.47;2.63;;;-1.50;99.90;;;-1.62;75.97;100161.03;5005988;28;20179;-70
2021/12/03 01:21:16;;;;;;;4.68;2.92;;;-1.50;99.90;;;-1.67;75.85;100159.78;5005520;28;20187;-70
2021/12/03 01:23:46;;;;;;;7.90;3.30;;;-1.50;99.90;;;-1.61;75.86;100151.25;5004531;28;20230;-71
2021/12/03 01:26:16;;;;;;;4.65;2.80;;;-1.40;99.90;;;-1.53;76.48;100154.03;5005656;28;20233;-71
2021/12/03 01:28:45;;;;;;;8.25;2.72;;;-1.40;99.90;;;-1.52;75.65;100155.69;5005625;28;20550;-70
2021/12/03 01:31:15;;;;;;;3.80;2.65;;;-1.40;99.90;;;-1.63;75.97;100150.53;4999643;28;20538;-71
2021/12/03 01:33:46;;;;;;;5.05;2.72;;;-1.40;99.90;;;-1.55;76.17;100164.75;4999845;28;20218;-70
2021/12/03 01:36:16;;;;;;;9.45;3.08;;;-1.40;99.90;;;-1.55;75.91;100151.50;4998551;28;20206;-70
2021/12/03 01:38:45;;;;;;;6.40;2.75;;;-1.40;99.90;;;-1.43;75.70;100147.72;5001586;28;20179;-70
2021/12/03 01:41:15;;;;;;;8.23;3.38;;;-1.30;99.90;;;-1.31;75.30;100154.50;4999518;28;20186;-71
2021/12/03 01:43:44;;;;;;;7.53;3.25;;;-1.20;99.90;;;-1.20;75.29;100155.31;4994245;28;20592;-70
2021/12/03 01:46:16;;;;;;;3.92;2.75;;;-1.10;99.90;;;-1.10;75.31;100150.81;4994843;28;20194;-70
2021/12/03 01:48:45;;;;;;;5.43;3.50;;;-1.10;99.90;;;-1.24;75.39;100146.81;4995888;28;20175;-70
2021/12/03 01:51:13;;;;;;;9.95;3.60;;;-1.00;99.90;;;-1.12;74.94;100145.69;4995770;28;20256;-70
2021/12/03 01:53:42;;;;;;;8.20;3.20;;;-1.00;99.90;;;-1.04;74.76;100144.94;4995827;28;20210;-70
2021/12/03 01:56:15;;;;;;;5.72;3.40;;;-1.00;99.90;;;-1.01;74.89;100144.63;4995653;28;20175;-70
2021/12/03 01:58:47;;;;;;;7.00;4.35;;;-0.90;99.90;;;-1.09;75.15;100140.06;4995568;28;20175;-71
2021/12/03 02:01:21;;;;;;;6.82;3.40;;;-0.90;99.90;;;-1.06;75.45;100144.22;4995766;28;20179;-71
2021/12/03 02:03:55;;;;;;;7.30;3.35;;;-0.90;99.90;;;-1.14;75.09;100144.13;4994455;28;20707;-70
2021/12/03 02:06:27;;;;;;;6.18;3.13;;;-1.00;99.90;;;-1.04;75.11;100147.59;4995492;28;20238;-70
2021/12/03 02:10:14;;;;;;;10.27;3.90;;;-0.90;99.90;;;-1.01;75.25;100145.47;4994318;28;20221;-70
2021/12/03 02:12:44;;;;;;;7.60;3.42;;;-0.90;99.90;;;-1.04;75.61;100143.13;4995706;28;20179;-70
2021/12/03 02:15:14;;;;;;;5.35;4.65;;;-0.90;99.90;;;-0.92;75.40;100146.44;4995751;28;20214;-69
2021/12/03 02:17:43;;;;;;;8.15;4.47;;;-0.80;99.90;;;-0.83;74.98;100137.56;4995805;28;20199;-70
2021/12/03 02:20:14;;;;;;;7.82;4.35;;;-0.80;99.90;;;-0.81;74.70;100132.09;4996755;28;20190;-70
2021/12/03 02:22:46;;;;;;;10.18;5.05;;;-0.70;99.90;;;-0.93;75.05;100128.81;4997483;28;20253;-70
2021/12/03 02:25:20;;;;;;;6.20;3.60;;;-0.80;99.90;;;-0.92;74.99;100133.97;4997700;28;20183;-71
2021/12/03 02:27:51;;;;;;;8.38;4.22;;;-0.80;99.90;;;-0.99;74.83;100135.56;4997413;28;20258;-71
2021/12/03 02:30:25;;;;;;;8.77;4.95;;;-0.80;99.90;;;-0.94;74.52;100132.44;4995977;28;20560;-69
2021/12/03 02:32:54;;;;;;;7.75;4.15;;;-0.80;99.90;;;-0.94;75.18;100137.75;4993154;28;20202;-71
2021/12/03 02:35:24;;;;;;;8.65;4.57;;;-0.80;99.90;;;-0.85;74.73;100146.66;4994359;28;20176;-70
2021/12/03 02:37:55;;;;;;;5.18;4.70;;;-0.80;99.90;;;-0.93;74.78;100134.13;4994567;28;20225;-70
2021/12/03 02:40:25;;;;;;;5.35;4.03;;;-0.80;99.90;;;-0.76;74.29;100137.81;4994453;28;20175;-69
2021/12/03 02:42:55;;;;;;;5.18;4.03;;;-0.70;99.90;;;-0.69;74.32;100137.09;4994629;28;20187;-71
2021/12/03 02:45:24;;;;;;;4.93;3.83;;;-0.60;99.90;;;-0.60;73.90;100130.88;4993482;28;20190;-70
2021/12/03 02:47:52;;;;;;;5.47;3.90;;;-0.60;99.90;;;-0.62;73.89;100126.69;4994895;28;20179;-71
2021/12/03 02:50:21;;;;;;;8.10;4.93;;;-0.50;99.90;;;-0.65;73.42;100127.81;4995606;28;20693;-71
2021/12/03 02:52:52;;;;;;;6.70;4.72;;;-0.50;99.90;;;-0.66;73.71;100133.28;4995088;28;20695;-71
2021/12/03 02:55:23;;;;;;;13.60;7.18;;;-0.60;99.90;;;-0.74;73.93;100143.81;4995466;28;20292;-71
2021/12/03 02:57:52;;;;;;;7.63;3.83;;;-0.60;99.90;;;-0.83;74.82;100140.22;4994206;28;20704;-71
2021/12/03 03:00:27;;;;;;;4.57;4.00;;;-0.60;99.90;;;-0.77;74.56;100147.59;4994342;28;20198;-71
2021/12/03 03:02:58;;;;;;;7.75;4.60;;;-0.60;99.90;;;-0.67;74.13;100142.22;4994590;28;20174;-71
2021/12/03 03:05:29;;;;;;;7.25;5.43;;;-0.60;99.90;;;-0.74;74.02;100147.31;4994712;28;20618;-72
2021/12/03 03:07:57;;;;;;;7.50;4.18;;;-0.60;99.90;;;-0.74;73.72;100152.63;4994321;28;20190;-71
2021/12/03 03:10:33;;;;;;;7.63;4.20;;;-0.60;99.90;;;-0.72;73.78;100147.97;4994340;28;20179;-70
2021/12/03 03:13:02;;;;;;;6.28;4.03;;;-0.60;99.90;;;-0.77;74.50;100144.09;4994148;28;20232;-71
2021/12/03 03:15:30;;;;;;;7.75;3.80;;;-0.60;99.90;;;-0.77;74.03;100149.41;4992993;28;20209;-71
2021/12/03 03:18:11;;;;;;;11.63;4.25;;;-0.60;99.90;;;-0.82;74.57;100157.81;4994187;28;20199;-71
2021/12/03 03:20:43;;;;;;;5.20;4.40;;;-0.60;99.90;;;-0.77;74.33;100152.91;4993277;28;20202;-69
2021/12/03 03:23:13;;;;;;;6.70;3.97;;;-0.60;99.90;;;-0.72;73.84;100137.34;4994418;28;20214;-70
2021/12/03 03:25:47;;;;;;;4.80;3.47;;;-0.60;99.90;;;-0.71;73.42;100152.31;4993305;28;20190;-70
2021/12/03 03:28:17;;;;;;;4.45;3.70;;;-0.60;99.90;;;-0.74;73.95;100143.81;4994763;28;20198;-72
2021/12/03 03:30:49;;;;;;;10.88;3.70;;;-0.60;99.90;;;-0.73;73.65;100151.66;4994286;28;20183;-71
2021/12/03 03:33:18;;;;;;;6.53;3.55;;;-0.60;99.90;;;-0.68;73.60;100149.38;4994327;28;20642;-70
2021/12/03 03:35:47;;;;;;;7.05;4.03;;;-0.60;99.90;;;-0.72;73.83;100150.63;4994360;28;20203;-71
2021/12/03 03:38:17;;;;;;;8.25;3.72;;;-0.60;99.90;;;-0.68;73.79;100157.34;4993750;28;20275;-70
2021/12/03 03:40:48;;;;;;;7.15;3.42;;;-0.60;99.90;;;-0.70;73.55;100156.66;5009682;28;20183;-71
2021/12/03 03:43:19;;;;;;;4.00;3.40;;;-0.50;99.90;;;-0.71;73.78;100154.13;4994064;28;20214;-70
2021/12/03 03:45:50;;;;;;;9.07;3.58;;;-0.60;99.90;;;-0.59;73.46;100153.81;4994141;28;20176;-69
2021/12/03 03:48:18;;;;;;;5.55;3.70;;;-0.50;99.90;;;-0.65;73.57;100162.38;4993903;28;20175;-70
2021/12/03 03:50:47;;;;;;;5.38;3.13;;;-0.50;99.90;;;-0.65;73.67;100156.22;4994057;28;20187;-68
2021/12/03 03:53:16;;;;;;;5.78;3.78;;;-0.50;99.90;;;-0.65;73.64;100159.72;4994348;28;20250;-71
2021/12/03 03:55:45;;;;;;;8.07;3.47;;;-0.50;99.90;;;-0.65;73.24;100165.03;4993834;28;20174;-71
2021/12/03 03:58:15;;;;;;;7.70;3.42;;;-0.50;99.90;;;-0.70;73.74;100155.81;4995002;28;20206;-71
2021/12/03 04:00:45;;;;;;;6.28;3.60;;;-0.50;99.90;;;-0.66;73.21;100162.50;4994298;28;20189;-71
2021/12/03 04:03:15;;;;;;;8.65;3.67;;;-0.50;99.90;;;-0.64;74.02;100158.72;4995663;28;20211;-69
2021/12/03 04:05:44;;;;;;;7.10;4.13;;;-0.50;99.90;;;-0.64;73.53;100166.69;4997336;28;20550;-71
2021/12/03 04:08:12;;;;;;;9.30;4.10;;;-0.50;99.90;;;-0.62;73.62;100148.78;4997290;28;20185;-70
2021/12/03 04:10:41;;;;;;;5.50;3.50;;;-0.50;99.90;;;-0.58;73.18;100171.41;4999046;28;20183;-71
2021/12/03 04:13:10;;;;;;;10.07;6.18;;;-0.50;99.90;;;-0.49;73.27;100165.22;4999981;28;20671;-71
2021/12/03 04:15:42;;;;;;;8.48;4.50;;;-0.40;99.90;;;-0.39;72.69;100175.78;5000239;28;20191;-71
2021/12/03 04:18:10;;;;;;;7.93;3.38;;;-0.30;99.90;;;-0.30;72.88;100168.72;4999886;28;20269;-71
2021/12/03 04:20:39;;;;;;;6.55;3.80;;;-0.30;99.90;;;-0.22;72.60;100168.81;5001317;28;20190;-71
2021/12/03 04:23:08;;;;;;;9.73;3.85;;;-0.20;99.90;;;-0.15;72.42;100172.56;5000677;28;20572;-71
2021/12/03 04:25:37;;;;;;;10.15;5.38;;;-0.10;99.90;;;-0.17;72.99;100163.88;4997714;28;20182;-69
2021/12/03 04:28:05;;;;;;;13.63;3.90;;;-0.10;99.90;;;-0.19;72.40;100165.84;4998194;28;20703;-72
2021/12/03 04:30:34;;;;;;;12.25;5.40;;;-0.10;99.90;;;-0.18;72.63;100170.16;4997571;28;20198;-70
2021/12/03 04:33:04;;;;;;;8.75;3.75;;;-0.10;99.90;;;-0.25;72.40;100172.63;5003589;28;20175;-71
2021/12/03 04:35:32;;;;;;;6.95;4.57;;;-0.10;99.90;;;-0.26;72.53;100175.41;5007589;28;20625;-70
2021/12/03 04:38:01;;;;;;;5.85;3.92;;;-0.10;99.90;;;-0.31;72.53;100175.88;5000695;28;20203;-70
2021/12/03 04:40:31;;;;;;;8.82;4.35;;;-0.20;99.90;;;-0.34;72.92;100173.53;5000488;28;20175;-70
2021/12/03 04:43:00;;;;;;;12.18;5.15;;;-0.20;99.90;;;-0.37;73.30;100183.59;4999426;28;20520;-71
2021/12/03 04:45:31;;;;;;;8.95;4.25;;;-0.20;99.90;;;-0.48;72.99;100177.50;4998347;28;20179;-71
2021/12/03 04:48:02;;;;;;;7.25;4.22;;;-0.30;99.90;;;-0.47;73.35;100179.19;4998281;28;20186;-71
2021/12/03 04:50:40;;;;;;;5.90;3.13;;;-0.30;99.90;;;-0.45;73.74;100187.84;4998563;28;20197;-71
2021/12/03 04:53:11;;;;;;;12.52;4.50;;;-0.30;99.90;;;-0.48;73.19;100177.50;4997773;28;20210;-71
2021/12/03 04:55:40;;;;;;;7.75;3.95;;;-0.30;99.90;;;-0.52;73.72;100186.75;4997819;28;20578;-71
2021/12/03 04:58:08;;;;;;;9.15;4.30;;;-0.40;99.90;;;-0.50;73.33;100174.16;4997947;28;20182;-70
2021/12/03 05:00:42;;;;;;;8.10;3.63;;;-0.40;99.90;;;-0.52;74.01;100185.91;4997545;28;20210;-71
2021/12/03 05:03:11;;;;;;;7.13;3.97;;;-0.40;99.90;;;-0.58;73.80;100179.38;4998367;28;20251;-70
2021/12/03 05:05:47;;;;;;;14.27;5.28;;;-0.40;99.90;;;-0.52;73.68;100181.44;4998541;28;20229;-70
2021/12/03 05:08:15;;;;;;;6.55;2.90;;;-0.40;99.90;;;-0.47;73.37;100173.88;4998601;28;20206;-70
2021/12/03 05:10:44;;;;;;;9.73;4.15;;;-0.40;99.90;;;-0.53;73.72;100179.75;4995877;28;20652;-69
2021/12/03 05:13:16;;;;;;;12.80;3.50;;;-0.40;99.90;;;-0.54;73.92;100185.25;4996535;28;20214;-71
2021/12/03 05:15:48;;;;;;;7.85;3.67;;;-0.40;99.90;;;-0.54;73.90;100186.09;5030348;22;20312;-75
2021/12/03 06:17:41;;;;;;;6.75;3.80;;;-0.50;99.90;;;-0.80;74.49;100232.91;4746989;29;20214;-75
2021/12/03 06:20:12;;;;;;;6.90;4.65;;;-0.60;99.90;;;-0.69;74.48;100234.53;4830229;29;20233;-75
2021/12/03 06:29:01;;;;;;;8.40;3.97;;;-0.50;99.90;;;-0.59;74.51;100235.34;4987607;28;20187;-75
2021/12/03 06:31:38;;;;;;;8.73;4.50;;;-0.50;99.90;;;-0.58;74.31;100232.53;4971727;28;20238;-75
2021/12/03 06:37:39;;;;;;;9.65;5.47;;;-0.50;99.90;;;-0.59;74.84;100235.34;4978746;28;20286;-75
2021/12/03 07:47:59;;;;;;;10.95;6.60;;;0.60;99.90;;;0.76;71.37;100301.78;4965976;28;20231;-83
2021/12/03 08:00:51;;;;;;;10.77;6.30;;;1.00;99.90;;;1.07;69.67;100316.34;4880441;29;20231;-83
2021/12/03 08:07:27;;;;;;;7.80;5.95;;;1.10;99.90;;;1.00;70.04;100309.16;4945055;29;20224;-83
2021/12/03 08:10:10;;;;;;;12.13;7.32;;;1.10;99.90;;;1.02;69.68;100312.47;4930139;29;20196;-84
2021/12/03 08:12:46;;;;;;;14.15;6.07;;;1.10;99.90;;;1.04;69.61;100322.00;4944865;29;20392;-81
2021/12/03 08:16:06;;;;;;;18.00;7.32;;;1.10;99.90;;;1.30;68.99;100314.03;4945028;29;20272;-83
2021/12/03 08:18:46;;;;;;;13.85;5.72;;;1.20;99.90;;;1.13;69.32;100326.41;4935321;29;20208;-82
2021/12/03 08:28:57;;;;;;;12.10;6.90;;;1.30;99.90;;;1.18;69.10;100340.09;4948570;29;20201;-82
2021/12/03 08:32:33;;;;;;;12.77;8.97;;;1.30;99.90;;;1.16;69.30;100331.41;4935199;29;20445;-84
2021/12/03 08:35:56;;;;;;;9.90;7.10;;;1.20;99.90;;;1.24;69.20;100338.63;4945973;29;20450;-84
2021/12/03 08:43:08;;;;;;;9.73;5.68;;;1.40;99.90;;;1.35;68.92;100341.06;4958116;29;20205;-84
2021/12/03 08:46:46;;;;;;;9.38;7.05;;;1.40;99.90;;;1.52;68.93;100342.81;4958398;29;20227;-83
2021/12/03 09:01:07;;;;;;;12.25;6.10;;;1.70;99.90;;;1.94;67.20;100350.88;4948739;29;20216;-82
2021/12/03 09:08:00;;;;;;;9.55;7.10;;;1.80;99.90;;;1.84;67.29;100349.34;4961308;29;20248;-83
2021/12/03 09:15:54;;;;;;;12.07;7.45;;;1.90;99.90;;;2.13;66.86;100342.59;4934139;29;20196;-83
2021/12/03 09:33:45;;;;;;;14.77;5.30;;;2.10;99.90;;;2.26;66.20;100338.66;4967664;29;20236;-84
2021/12/03 09:37:27;;;;;;;10.38;6.05;;;2.20;99.90;;;2.31;65.57;100357.69;4972616;28;20235;-82
2021/12/03 10:46:41;;;;;;;9.50;5.15;;;3.30;99.90;;;3.18;61.89;100330.44;4962200;29;20220;-83
2021/12/03 10:49:52;;;;;;;9.23;5.13;;;3.20;99.90;;;3.31;61.54;100323.56;4974850;28;20184;-82
2021/12/03 10:52:59;;;;;;;11.48;5.55;;;3.30;99.90;;;3.49;61.71;100315.31;4978517;28;20191;-81
2021/12/03 10:56:16;;;;;;;6.82;4.70;;;3.40;99.90;;;3.61;61.64;100307.78;4963270;28;20185;-82
2021/12/03 11:02:07;;;;;;;8.80;4.95;;;3.70;99.90;;;3.58;60.80;100313.50;4946590;29;20577;-83
2021/12/03 11:05:23;;;;;;;7.45;4.40;;;3.60;99.90;;;3.71;60.72;100309.25;4945376;29;20210;-83
2021/12/03 11:15:47;;;;;;;11.90;4.75;;;3.80;99.90;;;3.77;60.51;100308.59;4949903;28;20215;-83
2021/12/03 14:00:25;;;;;;;9.48;6.07;;;3.60;99.90;;;3.62;62.02;100280.88;4939482;29;20716;-76
2021/12/03 14:40:32;;;;;;;12.43;10.05;;;3.00;99.90;;;2.91;63.76;100273.63;5035268;28;20565;-74
2021/12/03 14:46:25;;;;;;;19.48;10.60;;;2.90;99.90;;;2.89;63.89;100278.31;5032479;28;20555;-73
2021/12/03 14:49:25;;;;;;;18.67;9.60;;;2.90;99.90;;;2.91;63.79;100280.81;5033280;28;20658;-73
2021/12/03 14:52:09;;;;;;;13.73;10.10;;;2.90;99.90;;;3.00;63.74;100277.16;5033530;28;20184;-73
2021/12/03 14:57:37;;;;;;;12.85;8.05;;;3.00;99.90;;;2.87;64.04;100274.13;5033840;28;20205;-74
2021/12/03 15:00:18;;;;;;;12.40;7.13;;;2.90;99.90;;;2.91;64.31;100275.47;5033451;28;20188;-75
2021/12/03 15:05:51;;;;;;;12.45;9.50;;;3.00;99.90;;;2.97;64.37;100261.44;5032264;28;20208;-74
2021/12/03 15:08:23;;;;;;;20.52;10.15;;;3.00;99.90;;;3.02;64.36;100262.59;5033542;28;20538;-76
2021/12/03 15:19:56;;;;;;;16.52;9.63;;;3.00;99.90;;;2.90;65.19;100261.28;5131401;27;20687;-75
2021/12/03 15:25:23;;;;;;;14.35;10.95;;;3.00;99.90;;;3.17;64.54;100267.25;5084212;28;20197;-76
2021/12/03 15:30:56;;;;;;;13.70;9.13;;;3.10;99.90;;;2.94;64.90;100251.94;5143259;27;20207;-75
2021/12/03 15:33:40;;;;;;;18.67;9.40;;;3.00;99.90;;;2.96;64.95;100255.25;5110473;28;20259;-76
2021/12/03 15:36:13;;;;;;;13.23;9.35;;;3.00;99.90;;;2.84;65.66;100245.09;5108423;28;20202;-75
2021/12/03 15:39:00;;;;;;;14.10;8.82;;;2.90;99.90;;;2.89;65.25;100243.59;5110331;28;20262;-73
2021/12/03 16:03:54;;;;;;;11.73;8.77;;;2.80;99.90;;;2.76;66.16;100227.22;5110010;28;20210;-74
2021/12/03 16:06:35;;;;;;;9.88;8.20;;;2.80;99.90;;;2.61;66.40;100223.56;5110492;28;20171;-73
2021/12/03 16:09:14;;;;;;;11.25;8.38;;;2.70;99.90;;;2.66;66.20;100221.22;5109960;28;20214;-73
2021/12/03 16:11:48;;;;;;;10.80;8.38;;;2.70;99.90;;;2.75;66.01;100212.19;5109805;28;20175;-74
2021/12/03 16:17:24;;;;;;;10.82;8.57;;;2.80;99.90;;;2.69;66.10;100214.69;5099135;28;20198;-74
2021/12/03 16:45:52;;;;;;;11.15;8.80;;;2.50;99.90;;;2.44;67.32;100173.81;5098068;28;20196;-76
2021/12/03 16:51:25;;;;;;;11.85;9.10;;;2.50;99.90;;;2.53;66.91;100170.13;5094538;28;20214;-73
2021/12/03 16:53:56;;;;;;;11.00;8.27;;;2.50;99.90;;;2.55;66.90;100165.47;5094502;28;20213;-74
2021/12/03 17:00:15;;;;;;;11.20;8.90;;;2.60;99.90;;;2.60;66.77;100168.47;5090806;28;20560;-73
2021/12/03 17:02:48;;;;;;;12.18;8.15;;;2.60;99.90;;;2.64;66.62;100169.78;5081438;28;20203;-74
2021/12/03 17:30:10;;;;;;;12.38;8.27;;;2.70;99.90;;;2.62;66.73;100185.16;5098322;28;20186;-75
2021/12/03 17:47:01;;;;;;;11.73;8.70;;;2.80;99.90;;;2.73;65.72;100171.44;5094326;28;20197;-73
2021/12/03 17:49:36;;;;;;;12.45;7.78;;;2.70;99.90;;;2.78;65.89;100158.41;5096618;28;20191;-74
2021/12/03 17:52:29;;;;;;;12.57;6.45;;;2.80;99.90;;;2.78;65.51;100145.06;5094046;28;20272;-74
2021/12/03 17:55:18;;;;;;;12.93;6.93;;;2.80;99.90;;;2.77;65.42;100148.72;5093936;28;20215;-75
2021/12/03 17:57:52;;;;;;;9.68;7.55;;;2.80;99.90;;;2.78;65.41;100144.22;5096215;28;20187;-75
2021/12/03 18:00:34;;;;;;;10.25;7.10;;;2.80;99.90;;;2.71;65.58;100141.38;5094309;28;20545;-75
2021/12/03 18:03:09;;;;;;;9.20;6.53;;;2.80;99.90;;;2.62;65.53;100127.22;5098396;28;20176;-74
2021/12/03 18:05:58;;;;;;;8.63;6.07;;;2.70;99.90;;;2.71;65.09;100135.25;5102810;28;20171;-75
2021/12/03 18:08:33;;;;;;;10.38;6.55;;;2.70;99.90;;;2.64;65.16;100121.72;5101248;28;20179;-74
2021/12/03 18:51:18;;;;;;;10.55;6.90;;;2.50;99.90;;;2.57;64.50;100044.09;5091116;28;20191;-75
2021/12/03 18:54:00;;;;;;;12.10;7.60;;;2.60;99.90;;;2.53;64.65;100041.94;5093862;28;20231;-74
2021/12/03 18:56:41;;;;;;;9.43;6.30;;;2.60;99.90;;;2.58;64.84;100036.91;5093729;28;20597;-73
2021/12/03 18:59:10;;;;;;;8.20;7.00;;;2.50;99.90;;;2.57;64.78;100035.25;5092493;28;20624;-74
2021/12/03 19:01:45;;;;;;;11.05;7.45;;;2.60;99.90;;;2.43;65.24;100018.09;5093714;28;20184;-73
2021/12/03 19:04:21;;;;;;;12.10;8.63;;;2.50;99.90;;;2.42;65.45;100031.63;5093871;28;20203;-73
2021/12/03 19:06:54;;;;;;;14.00;8.50;;;2.50;99.90;;;2.45;65.52;100020.59;5093978;28;20206;-73
2021/12/03 19:09:29;;;;;;;16.35;8.10;;;2.50;99.90;;;2.45;65.46;100016.09;5092816;28;20405;-74
2021/12/03 19:13:18;;;;;;;10.82;7.80;;;2.50;99.90;;;2.37;65.91;100007.28;5093097;28;20198;-73
2021/12/03 19:15:49;;;;;;;13.55;8.30;;;2.40;99.90;;;2.41;65.98;100003.25;5093287;28;20234;-74
2021/12/03 19:18:20;;;;;;;11.13;7.80;;;2.40;99.90;;;2.43;65.91;100011.91;5093272;28;20179;-73
2021/12/03 19:20:51;;;;;;;9.80;7.30;;;2.50;99.90;;;2.61;65.40;100005.34;5093532;28;20175;-74
2021/12/03 19:35:26;;;;;;;9.00;7.20;;;2.60;99.90;;;2.67;65.12;99992.31;5093513;28;20183;-75
2021/12/03 19:41:37;;;;;;;9.23;6.35;;;2.70;99.90;;;2.69;65.39;100001.00;5104016;28;20195;-73
2021/12/03 19:49:01;;;;;;;12.20;8.10;;;2.60;99.90;;;2.56;65.33;100004.22;5094557;28;20283;-72
2021/12/03 19:57:21;;;;;;;10.13;7.13;;;2.60;99.90;;;2.72;64.98;99997.97;5093848;28;20215;-75
2021/12/03 20:01:05;;;;;;;10.50;7.60;;;2.60;99.90;;;2.71;65.25;99988.31;5093857;28;20214;-73
2021/12/03 20:03:37;;;;;;;14.52;8.68;;;2.60;99.90;;;2.72;65.13;99988.13;5099916;28;20207;-74
2021/12/03 20:07:16;;;;;;;11.55;8.45;;;2.70;99.90;;;2.61;64.93;99983.97;5097159;28;20207;-72
2021/12/03 20:14:03;;;;;;;14.77;8.70;;;2.60;99.90;;;2.78;64.92;99974.06;5107045;28;20343;-75
2021/12/03 20:17:05;;;;;;;11.88;7.75;;;2.70;99.90;;;2.51;65.78;99959.34;5094752;28;20222;-75
2021/12/03 20:19:38;;;;;;;11.30;8.27;;;2.60;99.90;;;2.40;66.51;99965.06;5097593;28;20179;-74
2021/12/03 20:23:14;;;;;;;12.98;8.55;;;2.50;99.90;;;2.29;67.53;99962.75;5097291;28;20654;-74
2021/12/03 20:29:52;;;;;;;12.85;9.32;;;2.30;99.90;;;2.19;70.71;99962.94;5096263;28;20260;-73
2021/12/03 20:38:33;;;;;;;11.32;9.75;;;2.10;99.90;;;1.86;72.27;99947.16;5033454;28;20544;-73
2021/12/03 20:41:04;;;;;;;15.30;10.10;;;1.90;99.90;;;1.67;72.88;99941.19;5081915;28;20203;-73
2021/12/03 20:43:43;;;;;;;13.45;10.23;;;1.80;99.90;;;1.48;73.46;99944.19;5096227;28;20812;-74
2021/12/03 20:46:47;;;;;;;13.90;9.82;;;1.60;99.90;;;1.59;73.85;99948.38;5095337;28;20656;-72
2021/12/03 20:49:38;;;;;;;14.00;9.65;;;1.60;99.90;;;1.67;73.73;99945.69;5096119;28;20601;-73
2021/12/03 21:08:49;;;;;;;12.77;10.32;;;1.40;99.90;;;1.34;76.55;99920.03;5114569;28;20278;-74
2021/12/03 21:11:21;;;;;;;14.32;11.00;;;1.40;99.90;;;1.18;76.71;99912.88;5115700;28;20171;-74
2021/12/03 21:13:52;;;;;;;15.60;11.13;;;1.30;99.90;;;1.23;77.23;99905.22;5115624;28;20703;-74
2021/12/03 21:19:37;;;;;;;12.30;11.00;;;1.30;99.90;;;1.26;76.78;99903.03;5111116;28;20278;-74
2021/12/03 21:22:11;;;;;;;15.10;10.45;;;1.30;99.90;;;1.41;76.65;99895.19;5095615;28;20579;-76
2021/12/03 21:24:42;;;;;;;15.65;11.90;;;1.40;99.90;;;1.27;76.98;99904.72;5096177;28;20202;-75
2021/12/03 21:27:17;;;;;;;15.30;11.52;;;1.30;99.90;;;1.29;77.71;99901.88;5095135;28;20200;-74
2021/12/03 21:30:13;;;;;;;17.88;11.30;;;1.30;99.90;;;1.26;77.47;99899.53;5093070;28;20187;-74
2021/12/03 21:32:50;;;;;;;14.10;9.40;;;1.30;99.90;;;1.20;77.65;99900.22;5095036;28;20271;-74
2021/12/03 21:39:03;;;;;;;14.63;10.35;;;1.30;99.90;;;1.27;77.16;99883.38;5090877;28;20307;-73
2021/12/03 21:42:11;;;;;;;19.58;10.82;;;1.30;99.90;;;1.31;76.40;99878.53;5095106;28;20198;-74
2021/12/03 21:45:08;;;;;;;13.70;10.40;;;1.30;99.90;;;1.33;76.28;99884.56;5077788;28;20698;-73
2021/12/03 21:55:28;;;;;;;17.70;9.65;;;1.40;99.90;;;1.39;76.42;99872.41;5095179;28;20237;-73
2021/12/03 22:06:36;;;;;;;11.30;10.05;;;1.40;99.90;;;1.34;76.77;99869.41;5072562;28;20310;-74
2021/12/03 22:09:19;;;;;;;11.05;9.07;;;1.40;99.90;;;1.26;77.21;99865.72;5073938;28;20204;-74
2021/12/03 22:11:53;;;;;;;13.48;9.77;;;1.30;99.90;;;1.37;76.86;99859.22;5076311;28;20267;-74
2021/12/03 22:14:21;;;;;;;12.40;10.35;;;1.40;99.90;;;1.36;77.04;99862.88;5076182;28;20204;-75
2021/12/03 22:16:50;;;;;;;13.15;9.90;;;1.40;99.90;;;1.42;77.42;99861.38;5077375;28;20309;-73
2021/12/03 22:19:19;;;;;;;12.15;9.32;;;1.40;99.90;;;1.29;77.96;99857.41;5074328;28;20266;-74
2021/12/03 22:21:47;;;;;;;17.08;10.80;;;1.30;99.90;;;1.25;77.85;99849.91;5075323;28;20169;-74
2021/12/03 22:24:16;;;;;;;13.90;10.75;;;1.30;99.90;;;1.23;78.59;99850.06;5077315;28;20243;-74
2021/12/03 22:26:45;;;;;;;17.70;11.20;;;1.30;99.90;;;1.33;78.69;99852.56;5073706;28;20188;-74
2021/12/03 22:29:15;;;;;;;12.77;11.00;;;1.30;99.90;;;1.35;78.66;99855.06;5106914;28;20219;-75
2021/12/03 22:34:58;;;;;;;12.43;10.20;;;1.30;99.90;;;1.14;79.08;99832.44;5040802;28;20211;-74
2021/12/03 22:37:49;;;;;;;15.82;11.80;;;1.20;99.90;;;1.17;79.50;99837.41;5075301;28;20240;-76
2021/12/03 22:40:31;;;;;;;16.65;11.35;;;1.20;99.90;;;1.28;79.22;99838.91;5078498;28;20215;-74
2021/12/03 22:43:15;;;;;;;15.90;11.82;;;1.20;99.90;;;1.25;79.08;99834.78;5072959;28;20566;-76
2021/12/03 22:49:14;;;;;;;15.40;11.45;;;1.30;99.90;;;1.24;79.11;99826.94;5084636;28;20191;-74
2021/12/03 22:54:52;;;;;;;16.08;12.77;;;1.30;99.90;;;1.30;79.42;99827.09;5084969;28;20220;-75
2021/12/03 22:57:22;;;;;;;18.42;13.05;;;1.30;99.90;;;1.24;79.75;99827.78;5091637;28;20198;-74
2021/12/03 22:59:50;;;;;;;21.30;12.45;;;1.30;99.90;;;1.23;79.92;99820.75;5094152;28;20191;-74
2021/12/03 23:02:20;;;;;;;15.18;10.63;;;1.20;99.90;;;1.09;80.03;99818.78;5092892;28;20176;-74